createdAt,value
2023-01-30T00:01:46.860Z,91373.91
2023-01-30T00:04:16.160Z,91375.78
2023-01-30T00:06:43.863Z,91362.75
2023-01-30T00:09:15.057Z,91363.81
2023-01-30T00:11:42.630Z,91359.78
2023-01-30T00:14:09.459Z,91365.97
2023-01-30T00:16:36.377Z,91356.47
2023-01-30T00:19:03.231Z,91355.91
2023-01-30T00:21:30.183Z,91367.13
2023-01-30T00:23:56.835Z,91363.22
2023-01-30T00:26:23.489Z,91361.53
2023-01-30T00:28:50.618Z,91347.09
2023-01-30T00:31:17.309Z,91352.50
2023-01-30T00:33:44.210Z,91353.97
2023-01-30T00:36:11.269Z,91354.34
2023-01-30T00:38:37.996Z,91350.56
2023-01-30T00:41:05.243Z,91354.41
2023-01-30T00:43:50.826Z,91341.50
2023-01-30T00:46:51.972Z,91327.44
2023-01-30T00:49:19.044Z,91332.78
2023-01-30T00:51:46.673Z,91327.88
2023-01-30T00:54:13.460Z,91329.00
2023-01-30T00:56:40.364Z,91328.44
2023-01-30T00:59:07.092Z,91325.03
2023-01-30T01:01:34.480Z,91330.59
2023-01-30T01:04:01.231Z,91321.66
2023-01-30T01:06:27.919Z,91330.31
2023-01-30T01:08:54.714Z,91325.41
2023-01-30T01:11:24.743Z,91328.91
2023-01-30T01:13:56.891Z,91328.47
2023-01-30T01:16:24.956Z,91327.81
2023-01-30T01:18:52.103Z,91323.66
2023-01-30T01:21:20.379Z,91326.38
2023-01-30T01:23:56.858Z,91297.59
2023-01-30T01:26:24.088Z,91322.16
2023-01-30T01:28:54.896Z,91321.38
2023-01-30T01:31:22.372Z,91317.88
2023-01-30T01:33:49.099Z,91327.00
2023-01-30T01:36:29.388Z,91333.47
2023-01-30T01:39:03.590Z,91320.72
2023-01-30T01:41:30.740Z,91323.38
2023-01-30T01:44:12.853Z,91318.00
2023-01-30T01:46:53.592Z,91321.66
2023-01-30T01:49:25.073Z,91310.69
2023-01-30T01:52:03.962Z,91314.41
2023-01-30T01:54:42.166Z,91316.34
2023-01-30T01:57:15.465Z,91308.41
2023-01-30T01:59:50.705Z,91300.75
2023-01-30T02:02:17.516Z,91295.25
2023-01-30T02:05:03.474Z,91296.47
2023-01-30T02:07:36.471Z,91305.00
2023-01-30T02:10:04.488Z,91295.53
2023-01-30T02:12:31.549Z,91293.13
2023-01-30T02:15:00.418Z,91290.78
2023-01-30T02:17:27.369Z,91296.34
2023-01-30T02:20:12.653Z,91291.75
2023-01-30T02:23:09.967Z,91295.25
2023-01-30T02:26:00.659Z,91299.03
2023-01-30T02:28:50.493Z,91293.13
2023-01-30T02:31:32.487Z,91284.41
2023-01-30T02:34:35.722Z,91282.13
2023-01-30T02:37:12.119Z,91279.44
2023-01-30T02:39:53.806Z,91273.72
2023-01-30T02:43:02.081Z,91260.78
2023-01-30T02:45:36.702Z,91259.78
2023-01-30T02:48:06.258Z,91247.88
2023-01-30T02:50:59.046Z,91244.09
2023-01-30T02:53:26.289Z,91241.69
2023-01-30T02:55:53.063Z,91233.94
2023-01-30T02:58:23.786Z,91240.41
2023-01-30T03:01:16.525Z,91229.81
2023-01-30T03:03:55.266Z,91230.81
2023-01-30T03:06:34.736Z,91235.59
2023-01-30T03:09:43.064Z,91244.22
2023-01-30T03:12:15.978Z,91244.06
2023-01-30T03:14:49.219Z,91242.78
2023-01-30T03:17:18.585Z,91244.06
2023-01-30T03:19:45.533Z,91249.63
2023-01-30T03:22:12.186Z,91259.72
2023-01-30T03:24:38.974Z,91244.81
2023-01-30T03:27:12.963Z,91254.16
2023-01-30T03:29:41.342Z,91250.63
2023-01-30T03:32:08.113Z,91256.72
2023-01-30T03:34:34.801Z,91259.13
2023-01-30T03:37:01.724Z,91262.41
2023-01-30T03:39:28.527Z,91252.69
2023-01-30T03:41:55.354Z,91255.50
2023-01-30T03:44:22.297Z,91256.59
2023-01-30T03:46:49.112Z,91255.00
2023-01-30T03:49:15.867Z,91250.56
2023-01-30T03:51:42.634Z,91254.19
2023-01-30T03:54:09.386Z,91248.06
2023-01-30T03:56:36.039Z,91244.63
2023-01-30T03:59:02.848Z,91249.97
2023-01-30T04:01:29.542Z,91239.44
2023-01-30T04:03:56.220Z,91244.19
2023-01-30T04:06:22.900Z,91232.47
2023-01-30T04:08:53.576Z,91229.38
2023-01-30T04:11:21.198Z,91232.09
2023-01-30T04:13:47.832Z,91228.09
2023-01-30T04:16:20.234Z,91234.25
2023-01-30T04:18:46.933Z,91225.16
2023-01-30T04:21:14.112Z,91225.34
2023-01-30T04:23:41.789Z,91236.28
2023-01-30T04:26:09.013Z,91237.28
2023-01-30T04:28:36.299Z,91235.53
2023-01-30T04:31:03.451Z,91235.66
2023-01-30T04:33:30.271Z,91229.63
2023-01-30T04:36:00.123Z,91236.44
2023-01-30T04:38:28.299Z,91233.91
2023-01-30T04:40:56.599Z,91240.78
2023-01-30T04:43:25.095Z,91238.44
2023-01-30T04:45:52.259Z,91238.88
2023-01-30T04:48:20.079Z,91241.31
2023-01-30T04:50:48.918Z,91237.75
2023-01-30T04:53:16.774Z,91236.34
2023-01-30T04:55:43.745Z,91240.41
2023-01-30T04:58:10.791Z,91233.47
2023-01-30T05:00:37.649Z,91238.50
2023-01-30T05:03:04.476Z,91236.66
2023-01-30T05:05:31.132Z,91242.69
2023-01-30T05:07:57.849Z,91245.06
2023-01-30T05:10:24.623Z,91244.84
2023-01-30T05:12:52.356Z,91224.59
2023-01-30T05:15:19.356Z,91246.13
2023-01-30T05:17:46.227Z,91250.63
2023-01-30T05:20:14.184Z,91251.47
2023-01-30T05:22:40.858Z,91239.59
2023-01-30T05:25:07.969Z,91248.19
2023-01-30T05:27:34.725Z,91259.84
2023-01-30T05:30:01.501Z,91260.41
2023-01-30T05:32:30.540Z,91259.00
2023-01-30T05:34:57.424Z,91255.72
2023-01-30T05:37:25.006Z,91260.22
2023-01-30T05:39:51.965Z,91256.44
2023-01-30T05:42:18.968Z,91268.44
2023-01-30T05:44:46.153Z,91267.84
2023-01-30T05:47:13.227Z,91267.13
2023-01-30T05:49:40.027Z,91272.56
2023-01-30T05:52:06.748Z,91261.53
2023-01-30T05:54:35.256Z,91268.09
2023-01-30T05:57:02.142Z,91268.41
2023-01-30T05:59:28.837Z,91265.13
2023-01-30T06:01:55.481Z,91268.59
2023-01-30T06:04:22.310Z,91265.72
2023-01-30T06:06:50.897Z,91263.47
2023-01-30T06:09:17.758Z,91264.41
2023-01-30T06:11:44.439Z,91259.66
2023-01-30T06:14:11.330Z,91254.81
2023-01-30T06:16:38.115Z,91253.22
2023-01-30T06:19:04.802Z,91250.59
2023-01-30T06:21:31.620Z,91251.44
2023-01-30T06:23:58.610Z,91243.38
2023-01-30T06:26:25.384Z,91253.13
2023-01-30T06:28:52.158Z,91256.91
2023-01-30T06:31:19.265Z,91256.66
2023-01-30T06:33:46.125Z,91255.56
2023-01-30T06:36:12.818Z,91256.63
2023-01-30T06:38:39.504Z,91256.94
2023-01-30T06:41:07.448Z,91253.00
2023-01-30T06:43:34.121Z,91247.03
2023-01-30T06:46:01.009Z,91247.66
2023-01-30T06:48:27.846Z,91241.22
2023-01-30T06:50:54.581Z,91242.19
2023-01-30T06:53:22.567Z,91243.66
2023-01-30T06:55:49.329Z,91240.00
2023-01-30T06:58:16.036Z,91242.41
2023-01-30T07:00:43.602Z,91233.13
2023-01-30T07:03:15.326Z,91237.78
2023-01-30T07:05:43.796Z,91245.91
2023-01-30T07:08:11.072Z,91236.31
2023-01-30T07:10:38.970Z,91237.03
2023-01-30T07:13:06.815Z,91234.50
2023-01-30T07:15:33.856Z,91242.44
2023-01-30T07:18:02.327Z,91217.16
2023-01-30T07:20:31.339Z,91226.09
2023-01-30T07:22:58.165Z,91227.00
2023-01-30T07:25:26.480Z,91231.56
2023-01-30T07:28:01.451Z,91231.69
2023-01-30T07:30:30.031Z,91227.28
2023-01-30T07:32:58.480Z,91222.13
2023-01-30T07:35:27.054Z,91220.22
2023-01-30T07:37:53.881Z,91222.38
2023-01-30T07:40:21.429Z,91211.47
2023-01-30T07:43:02.695Z,91224.31
2023-01-30T07:45:35.866Z,91212.28
2023-01-30T07:48:02.951Z,91207.84
2023-01-30T07:50:29.807Z,91205.94
2023-01-30T07:52:56.546Z,91211.56
2023-01-30T07:55:24.869Z,91204.22
2023-01-30T07:57:51.509Z,91212.63
2023-01-30T08:00:19.021Z,91205.28
2023-01-30T08:02:45.926Z,91203.19
2023-01-30T08:05:12.614Z,91204.22
2023-01-30T08:07:39.223Z,91203.91
2023-01-30T08:10:06.894Z,91204.31
2023-01-30T08:12:33.561Z,91206.88
2023-01-30T08:15:00.551Z,91209.97
2023-01-30T08:17:27.346Z,91205.03
2023-01-30T08:19:54.149Z,91207.84
2023-01-30T08:22:20.934Z,91208.25
2023-01-30T08:24:47.608Z,91200.91
2023-01-30T08:27:14.296Z,91197.03
2023-01-30T08:29:41.330Z,91199.13
2023-01-30T08:32:08.035Z,91177.75
2023-01-30T08:34:36.036Z,91199.28
2023-01-30T08:37:03.524Z,91199.00
2023-01-30T08:39:30.211Z,91189.94
2023-01-30T08:41:57.228Z,91195.28
2023-01-30T08:44:23.926Z,91185.59
2023-01-30T08:46:50.611Z,91174.63
2023-01-30T08:49:17.454Z,91176.31
2023-01-30T08:51:44.307Z,91179.03
2023-01-30T08:54:11.093Z,91170.25
2023-01-30T08:56:37.809Z,91168.97
2023-01-30T08:59:04.454Z,91167.81
2023-01-30T09:01:31.318Z,91176.16
2023-01-30T09:03:58.114Z,91157.03
2023-01-30T09:06:26.273Z,91167.66
2023-01-30T09:08:53.056Z,91163.69
2023-01-30T09:11:19.805Z,91161.41
2023-01-30T09:13:48.755Z,91158.72
2023-01-30T09:16:16.442Z,91159.03
2023-01-30T09:18:44.856Z,91157.63
2023-01-30T09:21:13.294Z,91145.63
2023-01-30T09:23:40.317Z,91146.25
2023-01-30T09:26:09.336Z,91152.78
2023-01-30T09:28:36.181Z,91138.38
2023-01-30T09:31:03.885Z,91142.16
2023-01-30T09:33:30.992Z,91107.56
2023-01-30T09:35:57.753Z,91135.19
2023-01-30T09:38:24.431Z,91137.41
2023-01-30T09:41:00.106Z,91131.69
2023-01-30T09:43:34.130Z,91126.53
2023-01-30T09:46:13.034Z,91118.03
2023-01-30T09:48:46.975Z,91117.09
2023-01-30T09:51:32.521Z,91118.94
2023-01-30T09:54:24.493Z,91111.22
2023-01-30T09:57:24.881Z,91104.50
2023-01-30T10:00:06.117Z,91099.66
2023-01-30T10:02:47.699Z,91094.50
2023-01-30T10:05:14.652Z,91088.28
2023-01-30T10:07:56.729Z,91085.69
2023-01-30T10:10:38.604Z,91081.94
2023-01-30T10:13:11.160Z,91070.69
2023-01-30T10:15:50.026Z,91069.19
2023-01-30T10:18:51.566Z,91064.66
2023-01-30T10:21:50.745Z,91064.50
2023-01-30T10:25:15.674Z,91057.06
2023-01-30T10:27:50.574Z,91042.19
2023-01-30T10:30:18.485Z,91034.91
2023-01-30T10:32:51.550Z,91026.88
2023-01-30T10:35:30.171Z,91030.66
2023-01-30T10:38:15.429Z,91025.19
2023-01-30T10:40:50.823Z,91019.72
2023-01-30T10:43:24.027Z,91011.81
2023-01-30T10:45:55.804Z,91011.84
2023-01-30T10:48:49.980Z,91005.75
2023-01-30T10:51:25.319Z,91000.00
2023-01-30T10:54:03.481Z,90991.03
2023-01-30T10:56:48.878Z,90981.63
2023-01-30T10:59:50.287Z,90992.25
2023-01-30T11:02:26.274Z,90972.69
2023-01-30T11:05:03.733Z,90971.13
2023-01-30T11:07:32.177Z,90968.41
2023-01-30T11:09:59.942Z,90963.69
2023-01-30T11:12:27.417Z,90962.84
2023-01-30T11:15:04.689Z,90954.06
2023-01-30T11:17:37.596Z,90949.00
2023-01-30T11:20:20.773Z,90927.88
2023-01-30T11:22:52.443Z,90930.41
2023-01-30T11:25:23.075Z,90927.91
2023-01-30T11:28:05.678Z,90921.59
2023-01-30T11:30:36.712Z,90919.13
2023-01-30T11:33:17.083Z,90915.09
2023-01-30T11:35:54.392Z,90906.28
2023-01-30T11:38:25.726Z,90904.34
2023-01-30T11:41:18.005Z,90897.97
2023-01-30T11:43:44.911Z,90889.13
2023-01-30T11:46:16.007Z,90891.47
2023-01-30T11:49:02.971Z,90885.06
2023-01-30T11:51:47.057Z,90883.28
2023-01-30T11:54:20.243Z,90869.22
2023-01-30T11:56:52.986Z,90880.63
2023-01-30T11:59:31.899Z,90879.84
2023-01-30T12:02:35.801Z,90876.78
2023-01-30T12:05:06.304Z,90871.66
2023-01-30T12:07:35.612Z,90862.59
2023-01-30T12:10:26.332Z,90865.38
2023-01-30T12:12:55.323Z,90866.88
2023-01-30T12:15:35.301Z,90858.94
2023-01-30T12:18:01.915Z,90861.34
2023-01-30T12:20:55.761Z,90853.06
2023-01-30T12:23:52.685Z,90846.34
2023-01-30T12:26:37.941Z,90843.81
2023-01-30T12:29:55.249Z,90845.78
2023-01-30T12:32:26.453Z,90839.06
2023-01-30T12:34:53.296Z,90833.44
2023-01-30T12:37:35.495Z,90830.88
2023-01-30T12:40:17.643Z,90830.72
2023-01-30T12:43:02.940Z,90827.09
2023-01-30T12:45:34.730Z,90826.97
2023-01-30T12:48:07.629Z,90831.50
2023-01-30T12:50:49.589Z,90825.69
2023-01-30T12:53:43.214Z,90821.81
2023-01-30T12:56:15.657Z,90818.47
2023-01-30T12:58:50.555Z,90818.13
2023-01-30T13:01:32.756Z,90819.94
2023-01-30T13:04:46.960Z,90814.72
2023-01-30T13:07:33.241Z,90808.13
2023-01-30T13:10:21.266Z,90807.53
2023-01-30T13:13:07.178Z,90813.53
2023-01-30T13:15:46.097Z,90811.88
2023-01-30T13:18:22.197Z,90802.00
2023-01-30T13:20:55.201Z,90799.53
2023-01-30T13:23:41.538Z,90800.31
2023-01-30T13:26:19.641Z,90799.47
2023-01-30T13:28:53.345Z,90797.66
2023-01-30T13:31:24.866Z,90799.97
2023-01-30T13:34:04.621Z,90804.50
2023-01-30T13:37:01.082Z,90796.00
2023-01-30T13:39:54.243Z,90794.56
2023-01-30T13:42:52.674Z,90765.22
2023-01-30T13:45:27.169Z,90790.94
2023-01-30T13:48:16.883Z,90793.75
2023-01-30T13:50:43.562Z,90788.78
2023-01-30T13:53:28.292Z,90790.19
2023-01-30T13:56:39.606Z,90788.72
2023-01-30T13:59:21.746Z,90786.78
2023-01-30T14:02:04.182Z,90789.81
2023-01-30T14:04:40.278Z,90781.31
2023-01-30T14:07:13.102Z,90788.19
2023-01-30T14:09:46.822Z,90783.63
2023-01-30T14:12:20.248Z,90781.03
2023-01-30T14:15:04.308Z,90777.06
2023-01-30T14:17:31.259Z,90769.66
2023-01-30T14:20:01.779Z,90776.00
2023-01-30T14:22:56.635Z,90773.81
2023-01-30T14:25:23.300Z,90775.06
2023-01-30T14:27:53.111Z,90771.56
2023-01-30T14:30:45.606Z,90768.72
2023-01-30T14:33:21.520Z,90740.09
2023-01-30T14:35:54.275Z,90761.47
2023-01-30T14:38:22.300Z,90770.06
2023-01-30T14:41:23.865Z,90762.56
2023-01-30T14:43:54.381Z,90763.63
2023-01-30T14:46:21.334Z,90764.69
2023-01-30T14:48:50.096Z,90762.25
2023-01-30T14:51:34.722Z,90759.22
2023-01-30T14:54:14.654Z,90749.97
2023-01-30T14:57:16.039Z,90758.19
2023-01-30T14:59:45.778Z,90756.84
2023-01-30T15:02:12.538Z,90760.88
2023-01-30T15:04:50.550Z,90748.72
2023-01-30T15:07:26.395Z,90758.97
2023-01-30T15:10:00.467Z,90745.78
2023-01-30T15:12:43.023Z,90748.50
2023-01-30T15:15:38.973Z,90761.38
2023-01-30T15:18:31.757Z,90756.72
2023-01-30T15:21:41.742Z,90762.97
2023-01-30T15:24:44.744Z,90766.09
2023-01-30T15:27:31.753Z,90766.72
2023-01-30T15:30:45.432Z,90771.88
2023-01-30T15:33:22.937Z,90775.69
2023-01-30T15:35:56.439Z,90775.69
2023-01-30T15:38:31.865Z,90772.16
2023-01-30T15:41:03.118Z,90779.56
2023-01-30T15:44:12.029Z,90777.91
2023-01-30T15:46:48.524Z,90785.19
2023-01-30T15:49:40.297Z,90779.88
2023-01-30T15:52:16.195Z,90785.50
2023-01-30T15:54:52.401Z,90781.56
2023-01-30T15:57:38.604Z,90786.25
2023-01-30T16:00:12.070Z,90778.41
2023-01-30T16:02:38.973Z,90787.94
2023-01-30T16:05:13.492Z,90784.13
2023-01-30T16:07:40.246Z,90774.00
2023-01-30T16:10:19.648Z,90774.47
2023-01-30T16:12:47.939Z,90781.72
2023-01-30T16:15:31.002Z,90780.06
2023-01-30T16:18:06.981Z,90782.63
2023-01-30T16:20:58.902Z,90787.94
2023-01-30T16:23:52.949Z,90780.81
2023-01-30T16:26:21.978Z,90770.97
2023-01-30T16:29:00.729Z,90748.47
2023-01-30T16:31:32.862Z,90779.63
2023-01-30T16:34:00.450Z,90782.66
2023-01-30T16:36:27.125Z,90773.25
2023-01-30T16:38:55.330Z,90777.97
2023-01-30T16:41:40.311Z,90775.97
2023-01-30T16:44:20.794Z,90780.84
2023-01-30T16:47:01.136Z,90758.75
2023-01-30T16:49:39.056Z,90751.00
2023-01-30T16:52:31.504Z,90769.16
2023-01-30T16:55:00.938Z,90768.44
2023-01-30T16:57:43.839Z,90777.66
2023-01-30T17:00:31.993Z,90772.81
2023-01-30T17:03:01.974Z,90762.38
2023-01-30T17:05:40.933Z,90769.63
2023-01-30T17:08:33.242Z,90766.91
2023-01-30T17:11:01.544Z,90771.28
2023-01-30T17:13:44.743Z,90768.13
2023-01-30T17:16:23.494Z,90768.59
2023-01-30T17:18:53.962Z,90767.81
2023-01-30T17:21:23.349Z,90770.69
2023-01-30T17:24:02.805Z,90742.63
2023-01-30T17:26:30.450Z,90765.22
2023-01-30T17:28:57.355Z,90762.03
2023-01-30T17:31:24.183Z,90761.59
2023-01-30T17:33:50.878Z,90761.72
2023-01-30T17:36:24.365Z,90754.03
2023-01-30T17:38:51.674Z,90756.59
2023-01-30T17:41:26.285Z,90754.34
2023-01-30T17:43:52.830Z,90751.75
2023-01-30T17:46:23.538Z,90752.31
2023-01-30T17:48:51.882Z,90740.09
2023-01-30T17:51:18.587Z,90745.69
2023-01-30T17:53:45.342Z,90744.03
2023-01-30T17:56:19.647Z,90739.63
2023-01-30T17:58:46.380Z,90738.59
2023-01-30T18:01:16.229Z,90736.94
2023-01-30T18:03:44.873Z,90736.44
2023-01-30T18:06:14.387Z,90732.22
2023-01-30T18:08:41.835Z,90726.19
2023-01-30T18:11:11.792Z,90731.44
2023-01-30T18:13:47.921Z,90726.63
2023-01-30T18:16:23.465Z,90726.47
2023-01-30T18:18:51.285Z,90732.69
2023-01-30T18:21:18.282Z,90726.47
2023-01-30T18:23:44.982Z,90730.72
2023-01-30T18:26:12.863Z,90720.84
2023-01-30T18:28:39.911Z,90726.47
2023-01-30T18:31:07.019Z,90719.53
2023-01-30T18:33:34.250Z,90706.97
2023-01-30T18:36:12.745Z,90714.81
2023-01-30T18:38:39.494Z,90720.91
2023-01-30T18:41:17.919Z,90718.03
2023-01-30T18:43:48.240Z,90704.72
2023-01-30T18:46:18.840Z,90706.84
2023-01-30T18:48:46.694Z,90711.09
2023-01-30T18:51:16.142Z,90706.09
2023-01-30T18:53:43.649Z,90704.56
2023-01-30T18:56:15.575Z,90713.03
2023-01-30T18:58:42.837Z,90701.66
2023-01-30T19:01:17.562Z,90708.47
2023-01-30T19:03:44.699Z,90699.25
2023-01-30T19:06:18.747Z,90701.69
2023-01-30T19:08:45.843Z,90701.09
2023-01-30T19:11:33.869Z,90707.13
2023-01-30T19:14:00.687Z,90709.56
2023-01-30T19:16:29.721Z,90705.03
2023-01-30T19:18:56.785Z,90702.28
2023-01-30T19:21:24.690Z,90707.72
2023-01-30T19:23:51.851Z,90709.50
2023-01-30T19:26:21.369Z,90702.44
2023-01-30T19:28:50.079Z,90697.16
2023-01-30T19:31:19.092Z,90707.13
2023-01-30T19:33:48.406Z,90703.66
2023-01-30T19:36:19.185Z,90693.97
2023-01-30T19:38:47.426Z,90695.34
2023-01-30T19:41:24.438Z,90688.22
2023-01-30T19:43:52.660Z,90695.94
2023-01-30T19:46:19.751Z,90693.50
2023-01-30T19:48:47.640Z,90682.94
2023-01-30T19:51:17.132Z,90693.97
2023-01-30T19:53:45.652Z,90698.81
2023-01-30T19:56:13.563Z,90687.16
2023-01-30T19:58:40.891Z,90691.09
2023-01-30T20:01:10.127Z,90691.53
2023-01-30T20:03:37.836Z,90680.34
2023-01-30T20:06:07.315Z,90688.34
2023-01-30T20:08:36.476Z,90681.09
2023-01-30T20:11:06.279Z,90673.84
2023-01-30T20:13:38.882Z,90682.59
2023-01-30T20:16:11.864Z,90673.84
2023-01-30T20:18:40.233Z,90649.19
2023-01-30T20:21:19.843Z,90669.03
2023-01-30T20:23:47.782Z,90664.16
2023-01-30T20:26:17.471Z,90669.00
2023-01-30T20:28:45.058Z,90660.22
2023-01-30T20:31:20.418Z,90662.16
2023-01-30T20:33:47.587Z,90661.59
2023-01-30T20:36:18.716Z,90669.47
2023-01-30T20:38:49.098Z,90657.56
2023-01-30T20:41:18.924Z,90657.91
2023-01-30T20:43:49.522Z,90663.16
2023-01-30T20:46:41.644Z,90653.88
2023-01-30T20:49:17.192Z,90656.69
2023-01-30T20:51:44.516Z,90648.09
2023-01-30T20:54:12.976Z,90645.53
2023-01-30T20:56:45.753Z,90653.69
2023-01-30T20:59:15.842Z,90647.31
2023-01-30T21:01:43.257Z,90649.56
2023-01-30T21:04:15.708Z,90656.19
2023-01-30T21:06:45.688Z,90653.59
2023-01-30T21:09:19.264Z,90661.13
2023-01-30T21:11:46.721Z,90661.06
2023-01-30T21:14:14.143Z,90652.38
2023-01-30T21:16:41.160Z,90649.41
2023-01-30T21:19:11.241Z,90637.88
2023-01-30T21:22:04.538Z,90650.22
2023-01-30T21:24:31.260Z,90649.81
2023-01-30T21:26:58.205Z,90639.75
2023-01-30T21:29:27.304Z,90638.25
2023-01-30T21:31:55.671Z,90636.84
2023-01-30T21:34:22.950Z,90641.78
2023-01-30T21:37:08.089Z,90641.78
2023-01-30T21:39:53.465Z,90638.22
2023-01-30T21:42:40.490Z,90635.16
2023-01-30T21:45:07.815Z,90629.97
2023-01-30T21:47:34.524Z,90645.19
2023-01-30T21:50:01.320Z,90638.09
2023-01-30T21:52:27.981Z,90633.06
2023-01-30T21:54:54.760Z,90638.63
2023-01-30T21:57:21.449Z,90629.44
2023-01-30T21:59:48.139Z,90636.78
2023-01-30T22:02:14.837Z,90622.16
2023-01-30T22:04:41.550Z,90618.72
2023-01-30T22:07:08.337Z,90623.75
2023-01-30T22:09:35.044Z,90606.72
2023-01-30T22:12:01.750Z,90605.06
2023-01-30T22:14:28.567Z,90601.34
2023-01-30T22:16:55.256Z,90611.19
2023-01-30T22:19:21.888Z,90604.13
2023-01-30T22:21:48.586Z,90612.28
2023-01-30T22:24:15.392Z,90604.38
2023-01-30T22:26:42.320Z,90611.50
2023-01-30T22:29:09.444Z,90608.38
2023-01-30T22:31:38.726Z,90601.84
2023-01-30T22:34:06.485Z,90601.38
2023-01-30T22:36:34.830Z,90595.56
2023-01-30T22:39:02.712Z,90599.47
2023-01-30T22:41:32.527Z,90597.22
2023-01-30T22:43:59.919Z,90586.63
2023-01-30T22:46:35.234Z,90595.56
2023-01-30T22:49:03.971Z,90585.13
2023-01-30T22:51:33.126Z,90582.38
2023-01-30T22:54:09.191Z,90575.34
2023-01-30T22:56:38.605Z,90573.41
2023-01-30T22:59:06.706Z,90570.28
2023-01-30T23:01:37.090Z,90561.56
2023-01-30T23:04:11.546Z,90554.81
2023-01-30T23:06:39.264Z,90553.41
2023-01-30T23:09:08.476Z,90554.63
2023-01-30T23:11:39.188Z,90565.03
2023-01-30T23:14:14.453Z,90536.72
2023-01-30T23:16:43.702Z,90546.50
2023-01-30T23:19:12.637Z,90553.94
2023-01-30T23:21:45.395Z,90548.91
2023-01-30T23:24:17.000Z,90544.94
2023-01-30T23:26:46.323Z,90535.56
2023-01-30T23:29:16.223Z,90543.22
2023-01-30T23:31:44.577Z,90526.59
2023-01-30T23:34:17.719Z,90539.88
2023-01-30T23:36:45.271Z,90520.16
2023-01-30T23:39:13.578Z,90528.53
2023-01-30T23:41:41.526Z,90524.09
2023-01-30T23:44:09.086Z,90480.44
2023-01-30T23:46:42.395Z,90526.97
2023-01-30T23:49:12.124Z,90525.63
2023-01-30T23:51:40.903Z,90526.25
2023-01-30T23:54:08.798Z,90515.41
2023-01-30T23:56:37.969Z,90522.31
2023-01-30T23:59:05.380Z,90509.94
